Ana Sayfa
METAR-TAF:

METAR-TAF

Havaalanları :

Brooks County Airport

Falfurrias, Teksas, Amerika Birleşik Devletleri

Enlem: 27-12-24N, Boylam: 098-07-16W, yükseklik: 34 m

Güncel hava durumu gözlemi

Rapor saat 06:15 UTC de 25 dakika önce yapıldı.
Sakin rüzgar
Sıcaklık 26°C
Nem 89%
Basınç 1017 hPa
Görüş mesafesi: 16.1 km
11000 ft yükseklikte çok bulutlu

METAR: KBKS 240615Z AUTO 00000KT 10SM OVC110 26/24 A3002 RMK AO1 T02610242

Saat: 01:40 (06:40 UTC)


TAF: eksik

4.000'den fazla havaalanı için hava durumu gözlemleri ve tahminleri (METAR ve TAF raporları).

Kullanılabilir istasyonlar harita üzerinde sarı ve kırmızı noktalarla gösterilir.

İstasyonun adını görmek için fareyi noktanın üzerinde gezdirin.

Sonrasında hava gözlem ve tahminlerini görmek için tıklayın.

Haritayı değiştirmek için: yaklaştırmak için siyah artı işaretli yeşil düğmeye ve uzaklaştırmak için de eksi işaretli düğmeye hızla tıklayın; bitişik haritalar için yeşil okları kullanın.


METAR-TAF: